createdAt,value
2023-03-12T00:04:48.953Z,95599.09
2023-03-12T00:14:52.748Z,95604.81
2023-03-12T00:24:56.465Z,95596.44
2023-03-12T00:35:00.263Z,95586.41
2023-03-12T00:45:02.937Z,95590.09
2023-03-12T00:55:07.078Z,95581.19
2023-03-12T01:05:11.878Z,95581.84
2023-03-12T01:15:16.310Z,95587.41
2023-03-12T01:25:18.942Z,95576.28
2023-03-12T01:35:22.972Z,95578.41
2023-03-12T01:45:44.044Z,95584.50
2023-03-12T01:55:47.867Z,95599.50
2023-03-12T02:05:54.683Z,95590.00
2023-03-12T02:15:58.456Z,95590.41
2023-03-12T02:26:03.002Z,95592.03
2023-03-12T02:36:06.038Z,95587.22
2023-03-12T02:46:10.187Z,95590.88
2023-03-12T02:56:12.680Z,95587.47
2023-03-12T03:06:16.961Z,95580.75
2023-03-12T03:16:19.540Z,95571.44
2023-03-12T03:26:24.168Z,95559.50
2023-03-12T03:36:26.604Z,95552.38
2023-03-12T03:46:30.426Z,95543.47
2023-03-12T03:56:33.024Z,95578.75
2023-03-12T04:06:36.825Z,95558.63
2023-03-12T04:16:39.268Z,95557.06
2023-03-12T04:26:43.308Z,95569.63
2023-03-12T04:36:46.289Z,95556.66
2023-03-12T04:46:50.158Z,95553.81
2023-03-12T04:56:52.643Z,95534.72
2023-03-12T05:06:56.464Z,95545.69
2023-03-12T05:16:58.889Z,95531.06
2023-03-12T05:27:02.961Z,95527.63
2023-03-12T05:37:05.516Z,95544.06
2023-03-12T05:47:10.577Z,95549.53
2023-03-12T05:57:12.988Z,95547.50
2023-03-12T06:07:16.825Z,95545.69
2023-03-12T06:17:20.370Z,95555.84
2023-03-12T06:27:24.321Z,95555.44
2023-03-12T06:37:26.835Z,95559.47
2023-03-12T06:47:30.658Z,95549.34
2023-03-12T06:57:33.089Z,95548.50
2023-03-12T07:07:36.880Z,95564.31
2023-03-12T07:17:39.713Z,95574.06
2023-03-12T07:27:43.485Z,95575.69
2023-03-12T07:37:45.897Z,95595.97
2023-03-12T07:47:49.949Z,95582.53
2023-03-12T07:57:53.631Z,95571.94
2023-03-12T08:07:57.526Z,95576.97
2023-03-12T08:18:01.352Z,95573.09
2023-03-12T08:28:05.674Z,95579.50
2023-03-12T08:38:08.392Z,95590.72
2023-03-12T08:48:12.156Z,95586.41
2023-03-12T08:58:14.568Z,95594.50
2023-03-12T09:08:19.014Z,95602.13
2023-03-12T09:18:21.407Z,95616.91
2023-03-12T09:28:25.203Z,95626.19
2023-03-12T09:38:27.785Z,95619.84
2023-03-12T09:48:33.865Z,95636.75
2023-03-12T09:58:37.822Z,95637.84
2023-03-12T10:08:48.658Z,95645.16
2023-03-12T10:19:00.002Z,95651.97
2023-03-12T10:29:07.410Z,95665.00
2023-03-12T10:39:14.853Z,95657.75
2023-03-12T10:49:30.140Z,95679.13
2023-03-12T10:59:33.996Z,95700.03
2023-03-12T11:09:37.879Z,95700.16
2023-03-12T11:19:40.588Z,95706.69
2023-03-12T11:29:48.426Z,95707.91
2023-03-12T11:39:59.809Z,95710.47
2023-03-12T11:50:10.292Z,95700.13
2023-03-12T12:00:16.009Z,95700.75
2023-03-12T12:10:25.516Z,95690.47
2023-03-12T12:20:34.017Z,95666.34
2023-03-12T12:30:43.358Z,95668.50
2023-03-12T12:40:49.101Z,95643.44
2023-03-12T12:50:53.782Z,95647.50
2023-03-12T13:00:57.016Z,95645.41
2023-03-12T13:11:17.353Z,95633.03
2023-03-12T13:21:26.044Z,95649.81
2023-03-12T13:31:38.215Z,95663.28
2023-03-12T13:41:41.457Z,95684.72
2023-03-12T13:51:46.300Z,95684.34
2023-03-12T14:01:51.636Z,95677.19
2023-03-12T14:12:05.552Z,95670.28
2023-03-12T14:22:08.977Z,95677.00
2023-03-12T14:32:17.145Z,95667.53
2023-03-12T14:42:21.500Z,95687.63
2023-03-12T14:52:26.871Z,95665.25
2023-03-12T15:02:31.162Z,95658.72
2023-03-12T15:12:36.109Z,95672.69
2023-03-12T15:22:39.371Z,95669.56
2023-03-12T15:32:43.237Z,95662.81
2023-03-12T15:42:47.497Z,95660.19
2023-03-12T15:53:01.359Z,95656.06
2023-03-12T16:03:06.050Z,95665.59
2023-03-12T16:13:13.720Z,95669.28
2023-03-12T16:23:16.785Z,95655.31
2023-03-12T16:33:21.736Z,95658.66
2023-03-12T16:43:25.494Z,95655.63
2023-03-12T16:53:29.389Z,95652.63
2023-03-12T17:03:35.672Z,95651.41
2023-03-12T17:13:40.205Z,95648.03
2023-03-12T17:23:43.068Z,95651.06
2023-03-12T17:33:46.924Z,95651.97
2023-03-12T17:43:50.424Z,95663.03
2023-03-12T17:53:54.224Z,95689.94
2023-03-12T18:03:56.780Z,95698.34
2023-03-12T18:14:00.606Z,95706.44
2023-03-12T18:24:13.387Z,95696.38
2023-03-12T18:34:20.667Z,95694.09
2023-03-12T18:44:23.271Z,95712.44
2023-03-12T18:54:27.195Z,95718.16
2023-03-12T19:04:29.915Z,95709.28
2023-03-12T19:14:33.807Z,95692.03
2023-03-12T19:24:36.369Z,95710.56
2023-03-12T19:34:40.236Z,95713.72
2023-03-12T19:44:42.703Z,95707.72
2023-03-12T19:54:54.678Z,95705.75
2023-03-12T20:05:06.314Z,95742.03
2023-03-12T20:15:10.623Z,95728.69
2023-03-12T20:25:13.279Z,95726.75
2023-03-12T20:35:17.485Z,95724.22
2023-03-12T20:45:20.146Z,95707.44
2023-03-12T20:55:24.205Z,95703.72
2023-03-12T21:05:29.841Z,95700.81
2023-03-12T21:15:33.677Z,95703.47
2023-03-12T21:25:36.484Z,95708.59
2023-03-12T21:35:44.098Z,95703.56
2023-03-12T21:45:47.392Z,95693.13
2023-03-12T21:55:57.863Z,95695.81
2023-03-12T22:06:00.308Z,95678.19
2023-03-12T22:16:06.056Z,95675.84
2023-03-12T22:26:08.614Z,95653.97
2023-03-12T22:36:13.261Z,95628.91
2023-03-12T22:46:16.862Z,95599.56
2023-03-12T22:56:21.314Z,95588.25
2023-03-12T23:06:25.024Z,95555.94
2023-03-12T23:16:28.933Z,95549.34
2023-03-12T23:26:31.442Z,95559.50
2023-03-12T23:36:35.203Z,95559.91
2023-03-12T23:46:39.455Z,95567.66
2023-03-12T23:56:43.306Z,95563.94
